SCIE 191300Z 02009KT 5000 -DZ BR BKN006 OVC020 11/10 Q1018